Impacts METAR Board
IDs:

KPDX - Portland Intl Arpt, OR, US

Updated at: 1200 UTC 30 Mar 2020
Potential Impact None Slight Moderate High
Time 30/00Z 30/01Z 30/02Z 30/03Z 30/04Z 30/05Z 30/06Z 30/07Z 30/08Z 30/09Z 30/10Z 30/11Z 30/12Z
Temp58 57 56 55 54 52 52 51 51 49 49 50 49
Dewpt42 41 40 41 41 43 43 42 42 43 44 43 44
Altim29.90 29.89 29.88 29.88 29.88 29.89 29.87 29.84 29.80 29.78 29.75 29.74 29.75
VIS10 10 10 10 10 10 10 10 10 10 10 10 10
CIG170 180 60 60 60 38 43 45 48 50 48 23 24
CoverBKNOVCOVCOVCOVCOVCOVCOVCOVCOVCOVCOVCOVC
FltCatVFRVFRVFRVFRVFRVFRVFRVFRVFRVFRVFRMVFRMVFR
WX-----------------RA-RA-RA-RA-RA
WDir230240200220210200160160190180180190190
WSpd12 7 12 6 5 13 10 10 14 15 15 20 12
WGst-- -- 20 -- -- -- -- -- 21 21 19 29 --
Raw hourly METARs
KPDX 292353Z 23012KT 10SM FEW030 SCT075 BKN170 14/06 A2990 RMK AO2 SLP125 60004 T01440056 10150 20106 56015
KPDX 300053Z 24007KT 10SM FEW030 SCT050 OVC180 14/05 A2989 RMK AO2 SLP121 T01390050
KPDX 300153Z 20012G20KT 10SM FEW045 BKN060 OVC170 13/04 A2988 RMK AO2 SLP118 T01330044
KPDX 300253Z 22006KT 10SM SCT042 BKN060 OVC150 13/05 A2988 RMK AO2 SLP119 T01280050 55006
KPDX 300353Z 21005KT 10SM FEW040 BKN060 OVC160 12/05 A2988 RMK AO2 SLP118 T01220050
KPDX 300453Z 20013KT 10SM SCT027 BKN038 OVC065 11/06 A2989 RMK AO2 SLP120 T01110061
KPDX 300553Z 16010KT 10SM FEW020 BKN043 OVC055 11/06 A2987 RMK AO2 SLP115 T01110061 10144 20106 58004
KPDX 300653Z 16010KT 10SM FEW025 BKN045 OVC050 11/06 A2984 RMK AO2 SLP103 T01060056
KPDX 300753Z 19014G21KT 10SM -RA BKN048 OVC070 11/06 A2980 RMK AO2 RAB43 SLP092 P0000 T01060056 401500089
KPDX 300853Z 18015G21KT 10SM -RA OVC050 09/06 A2978 RMK AO2 SLP082 P0004 60004 T00940061 56033
KPDX 300953Z 18015G19KT 10SM -RA FEW026 SCT036 OVC048 09/07 A2975 RMK AO2 PK WND 17026/0905 SLP074 P0003 T00940067
KPDX 301053Z 19020G29KT 10SM -RA BKN023 OVC036 10/06 A2974 RMK AO2 PK WND 18029/1045 SLP071 P0001 T01000061
KPDX 301153Z 19012KT 10SM -RA BKN024 BKN033 OVC044 09/07 A2975 RMK AO2 PK WND 20031/1100 SLP073 P0005 60013 70023 T00940067 10111 20094 56001



Page loaded:  12:17 UTC  |   05:17 AM Pacific  |   06:17 AM Mountain  |   07:17 AM Central  |   08:17 AM Eastern

 

ADVISORIES

FORECASTS

FORECASTS

OBSERVATIONS

USER TOOLS

ABOUT US